createdAt,value
2022-11-23T00:01:35.982Z,96048.44
2022-11-23T00:04:10.530Z,96047.45
2022-11-23T00:06:38.943Z,96044.99
2022-11-23T00:09:07.634Z,96038.17
2022-11-23T00:11:35.826Z,96040.52
2022-11-23T00:14:04.300Z,96046.29
2022-11-23T00:16:32.259Z,96044.42
2022-11-23T00:19:01.802Z,96041.92
2022-11-23T00:21:32.283Z,96040.02
2022-11-23T00:24:00.346Z,96045.77
2022-11-23T00:26:30.922Z,96048.08
2022-11-23T00:29:00.643Z,96042.74
2022-11-23T00:31:28.721Z,96033.86
2022-11-23T00:33:57.766Z,96031.76
2022-11-23T00:36:27.352Z,96033.03
2022-11-23T00:38:55.794Z,96038.64
2022-11-23T00:41:26.446Z,96040.41
2022-11-23T00:43:54.870Z,96036.79
2022-11-23T00:46:25.961Z,96033.27
2022-11-23T00:48:56.352Z,96029.45
2022-11-23T00:51:26.892Z,96022.86
2022-11-23T00:53:55.308Z,96013.73
2022-11-23T00:56:23.561Z,96007.72
2022-11-23T00:58:53.573Z,96007.77
2022-11-23T01:01:24.276Z,96006.81
2022-11-23T01:03:55.223Z,96015.27
2022-11-23T01:06:30.104Z,96018.59
2022-11-23T01:09:02.591Z,96013.84
2022-11-23T01:11:32.338Z,96019.56
2022-11-23T01:14:00.957Z,96022.39
2022-11-23T01:16:34.848Z,96020.48
2022-11-23T01:19:04.677Z,96015.21
2022-11-23T01:21:34.079Z,96011.73
2022-11-23T01:24:13.028Z,96004.74
2022-11-23T01:26:41.117Z,96004.40
2022-11-23T01:29:08.944Z,96002.63
2022-11-23T01:31:40.589Z,96001.27
2022-11-23T01:34:14.266Z,96000.87
2022-11-23T01:36:42.850Z,95992.44
2022-11-23T01:39:12.231Z,95996.02
2022-11-23T01:41:42.310Z,95991.20
2022-11-23T01:44:41.762Z,95986.31
2022-11-23T01:47:10.126Z,95981.41
2022-11-23T01:49:45.163Z,95978.99
2022-11-23T01:52:17.450Z,95975.80
2022-11-23T01:54:49.502Z,95971.61
2022-11-23T01:57:21.573Z,95965.00
2022-11-23T01:59:50.977Z,95962.56
2022-11-23T02:02:19.491Z,95960.41
2022-11-23T02:04:52.215Z,95960.51
2022-11-23T02:07:24.096Z,95958.22
2022-11-23T02:09:52.810Z,95960.12
2022-11-23T02:12:20.747Z,95966.71
2022-11-23T02:14:48.616Z,95964.17
2022-11-23T02:17:16.549Z,95969.06
2022-11-23T02:19:56.294Z,95969.08
2022-11-23T02:22:49.427Z,95962.59
2022-11-23T02:25:27.573Z,95962.42
2022-11-23T02:27:56.276Z,95961.52
2022-11-23T02:30:25.444Z,95965.65
2022-11-23T02:32:53.346Z,95968.30
2022-11-23T02:35:21.265Z,95972.20
2022-11-23T02:37:51.837Z,95970.76
2022-11-23T02:40:32.433Z,95966.80
2022-11-23T02:43:00.943Z,95957.73
2022-11-23T02:45:41.514Z,95962.73
2022-11-23T02:48:09.318Z,95965.58
2022-11-23T02:50:37.091Z,95955.88
2022-11-23T02:53:05.018Z,95950.90
2022-11-23T02:55:33.189Z,95946.14
2022-11-23T02:58:01.539Z,95950.38
2022-11-23T03:00:29.631Z,95949.60
2022-11-23T03:03:00.297Z,95941.19
2022-11-23T03:05:28.933Z,95937.92
2022-11-23T03:07:56.766Z,95945.02
2022-11-23T03:10:25.140Z,95945.42
2022-11-23T03:12:56.770Z,95944.21
2022-11-23T03:15:24.878Z,95944.01
2022-11-23T03:17:52.869Z,95935.83
2022-11-23T03:20:20.961Z,95933.04
2022-11-23T03:22:48.820Z,95935.25
2022-11-23T03:25:16.661Z,95936.10
2022-11-23T03:27:44.499Z,95926.89
2022-11-23T03:30:12.446Z,95931.05
2022-11-23T03:32:40.255Z,95933.19
2022-11-23T03:35:08.593Z,95930.17
2022-11-23T03:37:36.603Z,95924.30
2022-11-23T03:40:04.698Z,95926.08
2022-11-23T03:42:32.520Z,95930.98
2022-11-23T03:45:00.378Z,95926.65
2022-11-23T03:47:28.230Z,95926.70
2022-11-23T03:49:56.051Z,95925.79
2022-11-23T03:52:23.946Z,95925.84
2022-11-23T03:54:51.716Z,95926.99
2022-11-23T03:57:19.553Z,95933.41
2022-11-23T03:59:47.365Z,95940.86
2022-11-23T04:02:15.232Z,95948.48
2022-11-23T04:04:43.075Z,95955.17
2022-11-23T04:07:11.003Z,95952.91
2022-11-23T04:09:38.846Z,95945.20
2022-11-23T04:12:07.117Z,95944.84
2022-11-23T04:14:35.180Z,95949.56
2022-11-23T04:17:03.888Z,95948.83
2022-11-23T04:19:32.611Z,95946.29
2022-11-23T04:22:00.935Z,95953.84
2022-11-23T04:24:28.739Z,95952.27
2022-11-23T04:26:56.546Z,95960.17
2022-11-23T04:29:24.401Z,95953.42
2022-11-23T04:31:52.332Z,95945.20
2022-11-23T04:34:20.529Z,95954.23
2022-11-23T04:36:48.438Z,95955.77
2022-11-23T04:39:16.277Z,95950.90
2022-11-23T04:41:44.178Z,95948.59
2022-11-23T04:44:12.044Z,95948.98
2022-11-23T04:46:39.829Z,95947.27
2022-11-23T04:49:09.549Z,95948.27
2022-11-23T04:51:37.357Z,95949.64
2022-11-23T04:54:05.444Z,95952.73
2022-11-23T04:56:33.824Z,95953.83
2022-11-23T04:59:01.600Z,95954.63
2022-11-23T05:01:29.489Z,95953.84
2022-11-23T05:03:57.873Z,95954.89
2022-11-23T05:06:25.847Z,95954.09
2022-11-23T05:08:54.034Z,95957.63
2022-11-23T05:11:22.029Z,95954.64
2022-11-23T05:13:49.912Z,95950.14
2022-11-23T05:16:17.873Z,95942.90
2022-11-23T05:18:45.821Z,95941.83
2022-11-23T05:21:13.837Z,95937.83
2022-11-23T05:23:41.620Z,95932.72
2022-11-23T05:26:09.487Z,95928.73
2022-11-23T05:28:40.651Z,95924.13
2022-11-23T05:31:09.545Z,95920.13
2022-11-23T05:33:37.391Z,95916.89
2022-11-23T05:36:05.573Z,95923.09
2022-11-23T05:38:33.464Z,95926.73
2022-11-23T05:41:01.323Z,95932.14
2022-11-23T05:43:29.159Z,95932.23
2022-11-23T05:46:00.295Z,95934.38
2022-11-23T05:48:28.372Z,95931.11
2022-11-23T05:50:57.727Z,95926.48
2022-11-23T05:53:31.020Z,95923.16
2022-11-23T05:56:01.183Z,95922.19
2022-11-23T05:58:29.512Z,95918.51
2022-11-23T06:00:59.232Z,95911.71
2022-11-23T06:03:27.932Z,95902.86
2022-11-23T06:05:55.851Z,95901.40
2022-11-23T06:08:23.976Z,95898.16
2022-11-23T06:10:51.894Z,95897.71
2022-11-23T06:13:19.812Z,95894.48
2022-11-23T06:15:47.682Z,95900.70
2022-11-23T06:18:15.588Z,95906.31
2022-11-23T06:20:43.449Z,95916.88
2022-11-23T06:23:11.440Z,95920.80
2022-11-23T06:25:39.345Z,95919.64
2022-11-23T06:28:07.274Z,95921.31
2022-11-23T06:30:35.186Z,95924.32
2022-11-23T06:33:04.728Z,95927.11
2022-11-23T06:35:32.784Z,95933.66
2022-11-23T06:38:00.649Z,95934.50
2022-11-23T06:40:29.072Z,95933.13
2022-11-23T06:43:00.419Z,95932.55
2022-11-23T06:45:28.316Z,95935.73
2022-11-23T06:47:57.002Z,95940.83
2022-11-23T06:50:24.888Z,95948.11
2022-11-23T06:52:57.512Z,95948.21
2022-11-23T06:55:25.700Z,95949.38
2022-11-23T06:57:53.657Z,95946.65
2022-11-23T07:00:21.696Z,95940.60
2022-11-23T07:02:54.154Z,95941.67
2022-11-23T07:05:23.534Z,95936.34
2022-11-23T07:07:51.531Z,95937.42
2022-11-23T07:10:20.497Z,95935.98
2022-11-23T07:12:48.470Z,95931.17
2022-11-23T07:15:16.297Z,95929.73
2022-11-23T07:17:46.950Z,95934.05
2022-11-23T07:20:14.959Z,95930.14
2022-11-23T07:22:42.847Z,95931.36
2022-11-23T07:25:11.496Z,95933.71
2022-11-23T07:27:39.337Z,95931.63
2022-11-23T07:30:08.307Z,95928.20
2022-11-23T07:32:36.514Z,95931.84
2022-11-23T07:35:04.627Z,95936.34
2022-11-23T07:37:33.376Z,95926.80
2022-11-23T07:40:01.669Z,95925.48
2022-11-23T07:42:34.680Z,95919.41
2022-11-23T07:45:05.719Z,95916.17
2022-11-23T07:47:33.978Z,95921.68
2022-11-23T07:50:01.944Z,95921.35
2022-11-23T07:52:29.860Z,95906.80
2022-11-23T07:54:57.937Z,95904.92
2022-11-23T07:57:25.904Z,95907.97
2022-11-23T07:59:53.838Z,95910.24
2022-11-23T08:02:21.900Z,95908.40
2022-11-23T08:04:49.772Z,95903.46
2022-11-23T08:07:17.730Z,95899.39
2022-11-23T08:09:45.630Z,95909.05
2022-11-23T08:12:13.564Z,95911.80
2022-11-23T08:14:41.438Z,95911.39
2022-11-23T08:17:09.340Z,95909.16
2022-11-23T08:19:37.245Z,95909.97
2022-11-23T08:22:05.112Z,95920.37
2022-11-23T08:24:33.214Z,95915.31
2022-11-23T08:27:01.637Z,95907.24
2022-11-23T08:29:30.310Z,95907.86
2022-11-23T08:31:58.413Z,95914.02
2022-11-23T08:34:26.433Z,95914.00
2022-11-23T08:36:54.367Z,95907.48
2022-11-23T08:39:22.590Z,95904.40
2022-11-23T08:41:50.444Z,95905.86
2022-11-23T08:44:18.367Z,95905.65
2022-11-23T08:46:46.320Z,95905.73
2022-11-23T08:49:14.279Z,95901.61
2022-11-23T08:51:47.050Z,95900.16
2022-11-23T08:54:17.995Z,95902.02
2022-11-23T08:56:46.262Z,95903.41
2022-11-23T08:59:14.075Z,95895.61
2022-11-23T09:01:42.008Z,95889.22
2022-11-23T09:04:10.007Z,95890.52
2022-11-23T09:06:37.921Z,95883.95
2022-11-23T09:09:05.874Z,95881.70
2022-11-23T09:11:33.830Z,95880.73
2022-11-23T09:14:01.847Z,95878.54
2022-11-23T09:16:33.914Z,95883.17
2022-11-23T09:19:02.551Z,95879.79
2022-11-23T09:21:33.581Z,95877.55
2022-11-23T09:24:02.339Z,95868.16
2022-11-23T09:26:31.876Z,95877.31
2022-11-23T09:29:00.340Z,95873.22
2022-11-23T09:31:28.977Z,95876.33
2022-11-23T09:33:57.124Z,95876.12
2022-11-23T09:36:25.131Z,95878.80
2022-11-23T09:38:57.439Z,95882.65
2022-11-23T09:41:50.385Z,95887.13
2022-11-23T09:44:39.475Z,95881.82
2022-11-23T09:47:25.482Z,95879.91
2022-11-23T09:49:56.359Z,95877.98
2022-11-23T09:52:25.668Z,95874.09
2022-11-23T09:54:57.317Z,95871.96
2022-11-23T09:57:30.779Z,95869.04
2022-11-23T10:00:19.110Z,95863.30
2022-11-23T10:02:47.481Z,95863.15
2022-11-23T10:05:22.666Z,95870.15
2022-11-23T10:08:04.579Z,95870.30
2022-11-23T10:10:45.347Z,95865.31
2022-11-23T10:13:46.084Z,95855.58
2022-11-23T10:16:46.578Z,95849.60
2022-11-23T10:19:46.150Z,95844.52
2022-11-23T10:22:26.515Z,95844.63
2022-11-23T10:25:08.263Z,95844.21
2022-11-23T10:27:36.289Z,95843.13
2022-11-23T10:30:12.640Z,95846.39
2022-11-23T10:32:55.599Z,95841.02
2022-11-23T10:35:33.254Z,95841.91
2022-11-23T10:38:22.647Z,95837.92
2022-11-23T10:40:59.725Z,95833.69
2022-11-23T10:43:34.131Z,95833.89
2022-11-23T10:46:34.771Z,95835.63
2022-11-23T10:49:10.721Z,95828.59
2022-11-23T10:51:39.814Z,95820.33
2022-11-23T10:54:27.868Z,95817.33
2022-11-23T10:56:57.105Z,95817.27
2022-11-23T10:59:31.475Z,95820.33
2022-11-23T11:02:18.162Z,95825.21
2022-11-23T11:04:47.645Z,95824.52
2022-11-23T11:07:28.650Z,95828.29
2022-11-23T11:10:00.271Z,95827.85
2022-11-23T11:12:30.214Z,95831.42
2022-11-23T11:15:14.706Z,95832.81
2022-11-23T11:17:42.947Z,95830.23
2022-11-23T11:20:29.221Z,95825.45
2022-11-23T11:23:15.813Z,95823.52
2022-11-23T11:25:44.642Z,95819.79
2022-11-23T11:28:24.065Z,95821.01
2022-11-23T11:31:14.962Z,95815.00
2022-11-23T11:34:03.079Z,95810.66
2022-11-23T11:36:38.079Z,95811.73
2022-11-23T11:39:19.778Z,95809.76
2022-11-23T11:41:50.724Z,95804.57
2022-11-23T11:44:26.949Z,95807.06
2022-11-23T11:47:19.471Z,95809.94
2022-11-23T11:49:50.311Z,95814.02
2022-11-23T11:52:26.237Z,95810.41
2022-11-23T11:55:12.852Z,95813.23
2022-11-23T11:57:54.950Z,95818.83
2022-11-23T12:00:23.365Z,95818.77
2022-11-23T12:03:19.538Z,95812.67
2022-11-23T12:05:53.064Z,95811.32
2022-11-23T12:09:07.058Z,95816.60
2022-11-23T12:11:35.044Z,95816.30
2022-11-23T12:14:05.960Z,95817.66
2022-11-23T12:16:59.470Z,95815.02
2022-11-23T12:19:48.794Z,95814.94
2022-11-23T12:22:16.753Z,95814.51
2022-11-23T12:25:11.736Z,95809.92
2022-11-23T12:27:45.026Z,95812.02
2022-11-23T12:30:54.743Z,95812.64
2022-11-23T12:33:25.287Z,95812.42
2022-11-23T12:36:09.807Z,95809.35
2022-11-23T12:39:22.506Z,95811.92
2022-11-23T12:42:11.910Z,95810.78
2022-11-23T12:44:42.409Z,95809.79
2022-11-23T12:47:38.924Z,95809.73
2022-11-23T12:50:49.576Z,95804.96
2022-11-23T12:53:36.090Z,95802.52
2022-11-23T12:56:16.257Z,95798.74
2022-11-23T12:58:46.867Z,95797.88
2022-11-23T13:01:29.343Z,95797.41
2022-11-23T13:04:01.567Z,95796.09
2022-11-23T13:07:43.248Z,95793.88
2022-11-23T13:10:27.710Z,95788.24
2022-11-23T13:13:20.337Z,95789.05
2022-11-23T13:15:57.595Z,95791.91
2022-11-23T13:18:58.874Z,95792.60
2022-11-23T13:21:39.580Z,95794.16
2022-11-23T13:24:35.741Z,95795.79
2022-11-23T13:27:13.330Z,95794.97
2022-11-23T13:29:58.701Z,95797.70
2022-11-23T13:32:38.827Z,95797.52
2022-11-23T13:35:18.787Z,95801.35
2022-11-23T13:38:00.401Z,95799.17
2022-11-23T13:40:32.718Z,95801.16
2022-11-23T13:43:05.252Z,95801.89
2022-11-23T13:45:36.457Z,95802.05
2022-11-23T13:48:13.275Z,95799.05
2022-11-23T13:50:47.595Z,95800.95
2022-11-23T13:53:25.550Z,95803.27
2022-11-23T13:55:57.227Z,95804.42
2022-11-23T13:58:25.096Z,95804.50
2022-11-23T14:00:58.199Z,95804.25
2022-11-23T14:03:48.453Z,95801.43
2022-11-23T14:06:56.864Z,95811.67
2022-11-23T14:09:34.971Z,95815.20
2022-11-23T14:12:12.995Z,95813.86
2022-11-23T14:14:43.948Z,95816.92
2022-11-23T14:17:20.769Z,95822.77
2022-11-23T14:19:48.545Z,95823.42
2022-11-23T14:22:31.735Z,95822.00
2022-11-23T14:25:30.535Z,95818.75
2022-11-23T14:28:33.212Z,95817.91
2022-11-23T14:31:07.485Z,95815.64
2022-11-23T14:33:46.229Z,95817.77
2022-11-23T14:36:29.300Z,95816.73
2022-11-23T14:39:19.858Z,95820.98
2022-11-23T14:41:53.464Z,95824.31
2022-11-23T14:44:26.347Z,95825.80
2022-11-23T14:47:05.576Z,95824.27
2022-11-23T14:49:34.105Z,95824.80
2022-11-23T14:52:04.689Z,95832.22
2022-11-23T14:54:33.207Z,95835.58
2022-11-23T14:57:04.629Z,95838.91
2022-11-23T14:59:40.901Z,95841.74
2022-11-23T15:02:17.555Z,95845.80
2022-11-23T15:05:14.758Z,95846.80
2022-11-23T15:07:52.633Z,95851.90
2022-11-23T15:10:42.810Z,95852.49
2022-11-23T15:13:22.907Z,95858.48
2022-11-23T15:15:53.815Z,95857.40
2022-11-23T15:18:33.116Z,95860.23
2022-11-23T15:21:04.551Z,95867.33
2022-11-23T15:23:50.353Z,95865.78
2022-11-23T15:26:46.329Z,95868.97
2022-11-23T15:29:29.063Z,95873.18
2022-11-23T15:32:22.470Z,95875.85
2022-11-23T15:34:45.515Z,95878.27
2022-11-23T15:37:13.682Z,95879.20
2022-11-23T15:39:42.297Z,95880.23
2022-11-23T15:42:22.835Z,95882.23
2022-11-23T15:44:52.242Z,95878.30
2022-11-23T15:47:27.783Z,95881.06
2022-11-23T15:50:08.205Z,95879.88
2022-11-23T15:52:37.909Z,95878.73
2022-11-23T15:55:10.188Z,95877.48
2022-11-23T15:57:39.715Z,95879.20
2022-11-23T16:00:12.595Z,95884.61
2022-11-23T16:02:40.664Z,95882.77
2022-11-23T16:05:11.456Z,95878.02
2022-11-23T16:07:59.963Z,95873.70
2022-11-23T16:10:29.106Z,95869.52
2022-11-23T16:13:00.895Z,95864.07
2022-11-23T16:15:32.676Z,95866.27
2022-11-23T16:18:02.383Z,95869.61
2022-11-23T16:20:31.773Z,95874.09
2022-11-23T16:23:01.036Z,95876.98
2022-11-23T16:25:32.551Z,95877.59
2022-11-23T16:28:02.873Z,95878.84
2022-11-23T16:30:42.488Z,95878.16
2022-11-23T16:33:19.106Z,95879.27
2022-11-23T16:35:47.960Z,95882.66
2022-11-23T16:38:16.325Z,95881.13
2022-11-23T16:40:45.931Z,95880.59
2022-11-23T16:43:15.500Z,95884.96
2022-11-23T16:45:49.410Z,95889.90
2022-11-23T16:48:26.376Z,95895.13
2022-11-23T16:50:55.897Z,95895.86
2022-11-23T16:53:27.078Z,95899.70
2022-11-23T16:55:57.702Z,95898.40
2022-11-23T16:58:27.683Z,95898.86
2022-11-23T17:00:56.272Z,95894.75
2022-11-23T17:03:25.151Z,95889.25
2022-11-23T17:05:53.133Z,95889.35
2022-11-23T17:08:23.862Z,95889.64
2022-11-23T17:10:52.251Z,95886.16
2022-11-23T17:13:26.746Z,95888.18
2022-11-23T17:15:55.424Z,95892.90
2022-11-23T17:18:23.252Z,95892.70
2022-11-23T17:20:51.214Z,95893.00
2022-11-23T17:23:19.193Z,95897.61
2022-11-23T17:25:47.141Z,95894.38
2022-11-23T17:28:17.978Z,95894.33
2022-11-23T17:30:45.905Z,95892.08
2022-11-23T17:33:14.024Z,95893.01
2022-11-23T17:35:42.115Z,95892.98
2022-11-23T17:38:16.195Z,95896.52
2022-11-23T17:40:44.034Z,95897.00
2022-11-23T17:43:15.433Z,95895.64
2022-11-23T17:45:44.885Z,95892.94
2022-11-23T17:48:15.966Z,95890.81
2022-11-23T17:50:43.984Z,95891.11
2022-11-23T17:53:11.962Z,95892.81
2022-11-23T17:55:41.007Z,95893.30
2022-11-23T17:58:11.760Z,95891.98
2022-11-23T18:00:39.794Z,95892.19
2022-11-23T18:03:07.949Z,95897.05
2022-11-23T18:05:36.362Z,95894.45
2022-11-23T18:08:04.356Z,95889.31
2022-11-23T18:10:32.264Z,95890.14
2022-11-23T18:13:00.127Z,95888.98
2022-11-23T18:15:30.245Z,95889.73
2022-11-23T18:18:03.151Z,95887.80
2022-11-23T18:20:32.657Z,95888.17
2022-11-23T18:23:01.160Z,95887.71
2022-11-23T18:25:29.217Z,95893.30
2022-11-23T18:27:57.150Z,95893.42
2022-11-23T18:30:24.974Z,95895.05
2022-11-23T18:32:52.830Z,95895.90
2022-11-23T18:35:20.844Z,95903.35
2022-11-23T18:37:48.851Z,95902.73
2022-11-23T18:40:16.911Z,95906.30
2022-11-23T18:42:45.241Z,95907.47
2022-11-23T18:45:13.197Z,95907.14
2022-11-23T18:47:41.162Z,95908.81
2022-11-23T18:50:09.348Z,95912.17
2022-11-23T18:52:37.279Z,95915.41
2022-11-23T18:55:05.518Z,95917.71
2022-11-23T18:57:33.436Z,95920.34
2022-11-23T19:00:01.909Z,95919.56
2022-11-23T19:02:30.549Z,95922.87
2022-11-23T19:04:58.568Z,95931.89
2022-11-23T19:07:27.446Z,95936.16
2022-11-23T19:09:55.614Z,95940.12
2022-11-23T19:12:23.707Z,95942.59
2022-11-23T19:14:51.721Z,95937.65
2022-11-23T19:17:19.880Z,95941.02
2022-11-23T19:19:47.743Z,95940.84
2022-11-23T19:22:15.727Z,95944.28
2022-11-23T19:24:43.690Z,95949.22
2022-11-23T19:27:11.562Z,95947.96
2022-11-23T19:29:39.442Z,95953.27
2022-11-23T19:32:07.557Z,95954.42
2022-11-23T19:34:35.629Z,95955.63
2022-11-23T19:37:03.556Z,95954.54
2022-11-23T19:39:31.866Z,95953.19
2022-11-23T19:42:00.187Z,95952.77
2022-11-23T19:44:28.329Z,95954.33
2022-11-23T19:46:56.412Z,95955.80
2022-11-23T19:49:24.398Z,95961.34
2022-11-23T19:51:53.780Z,95962.09
2022-11-23T19:54:21.710Z,95964.41
2022-11-23T19:56:50.376Z,95963.87
2022-11-23T19:59:18.434Z,95965.23
2022-11-23T20:01:46.462Z,95966.51
2022-11-23T20:04:14.349Z,95966.41
2022-11-23T20:06:44.513Z,95969.80
2022-11-23T20:09:17.074Z,95974.66
2022-11-23T20:11:50.397Z,95978.32
2022-11-23T20:14:19.510Z,95979.14
2022-11-23T20:16:48.055Z,95982.73
2022-11-23T20:19:16.286Z,95982.40
2022-11-23T20:21:44.232Z,95985.42
2022-11-23T20:24:15.065Z,95986.10
2022-11-23T20:26:43.404Z,95984.61
2022-11-23T20:29:13.816Z,95986.02
2022-11-23T20:31:41.987Z,95996.02
2022-11-23T20:34:14.225Z,96005.96
2022-11-23T20:36:45.708Z,96016.14
2022-11-23T20:39:16.164Z,96016.41
2022-11-23T20:41:45.192Z,96013.08
2022-11-23T20:44:14.426Z,96016.02
2022-11-23T20:47:01.192Z,96014.08
2022-11-23T20:49:31.724Z,96014.23
2022-11-23T20:52:00.197Z,96013.67
2022-11-23T20:54:28.627Z,96016.89
2022-11-23T20:57:00.137Z,96022.16
2022-11-23T20:59:28.440Z,96019.88
2022-11-23T21:01:56.605Z,96020.69
2022-11-23T21:04:24.662Z,96022.16
2022-11-23T21:06:52.586Z,96022.33
2022-11-23T21:09:20.480Z,96026.33
2022-11-23T21:12:07.093Z,96029.60
2022-11-23T21:14:35.044Z,96027.73
2022-11-23T21:17:03.823Z,96029.96
2022-11-23T21:19:32.712Z,96030.30
2022-11-23T21:22:18.743Z,96034.58
2022-11-23T21:24:46.626Z,96033.48
2022-11-23T21:27:14.505Z,96029.96
2022-11-23T21:29:45.057Z,96030.66
2022-11-23T21:32:14.988Z,96033.20
2022-11-23T21:34:43.202Z,96033.27
2022-11-23T21:37:12.505Z,96032.92
2022-11-23T21:39:42.105Z,96031.81
2022-11-23T21:42:10.572Z,96029.15
2022-11-23T21:44:38.445Z,96025.75
2022-11-23T21:47:06.846Z,96023.01
2022-11-23T21:49:34.829Z,96023.98
2022-11-23T21:52:02.694Z,96031.71
2022-11-23T21:54:30.550Z,96032.45
2022-11-23T21:56:58.711Z,96034.20
2022-11-23T21:59:26.590Z,96031.40
2022-11-23T22:01:57.270Z,96034.60
2022-11-23T22:04:25.419Z,96034.79
2022-11-23T22:06:53.220Z,96037.24
2022-11-23T22:09:21.078Z,96041.58
2022-11-23T22:11:49.505Z,96044.89
2022-11-23T22:14:19.608Z,96048.66
2022-11-23T22:16:56.739Z,96049.08
2022-11-23T22:19:24.564Z,96051.85
2022-11-23T22:21:52.378Z,96051.29
2022-11-23T22:24:22.588Z,96047.98
2022-11-23T22:26:50.461Z,96048.45
2022-11-23T22:29:18.412Z,96045.27
2022-11-23T22:31:46.234Z,96049.39
2022-11-23T22:34:14.917Z,96051.63
2022-11-23T22:36:43.056Z,96055.28
2022-11-23T22:39:11.125Z,96059.84
2022-11-23T22:41:39.475Z,96059.58
2022-11-23T22:44:10.158Z,96059.19
2022-11-23T22:46:38.989Z,96057.52
2022-11-23T22:49:07.350Z,96051.91
2022-11-23T22:51:35.364Z,96051.60
2022-11-23T22:54:03.936Z,96055.81
2022-11-23T22:56:31.893Z,96055.48
2022-11-23T22:59:00.196Z,96061.96
2022-11-23T23:01:30.519Z,96058.13
2022-11-23T23:04:01.599Z,96057.95
2022-11-23T23:06:34.630Z,96052.58
2022-11-23T23:09:06.550Z,96049.90
2022-11-23T23:11:36.274Z,96047.27
2022-11-23T23:14:04.156Z,96049.45
2022-11-23T23:16:32.250Z,96050.50
2022-11-23T23:19:00.549Z,96049.56
2022-11-23T23:21:29.271Z,96045.84
2022-11-23T23:24:00.944Z,96044.60
2022-11-23T23:26:29.398Z,96045.50
2022-11-23T23:28:59.675Z,96043.97
2022-11-23T23:31:29.286Z,96042.81
2022-11-23T23:33:59.358Z,96040.66
2022-11-23T23:36:27.671Z,96039.09
2022-11-23T23:38:55.741Z,96041.09
2022-11-23T23:41:23.595Z,96042.73
2022-11-23T23:43:51.534Z,96040.25
2022-11-23T23:46:19.607Z,96044.16
2022-11-23T23:48:47.578Z,96043.91
2022-11-23T23:51:21.492Z,96047.38
2022-11-23T23:53:51.187Z,96047.83
2022-11-23T23:56:24.284Z,96050.29
2022-11-23T23:58:53.305Z,96052.96
